首页
METAR-TAF:

METAR-TAF

机场 :

曼哈頓, 堪薩斯州, 美国

纬度: 39-08-07N, 经度: 096-40-40W, 海拔: 321米

当前天气观测

该预报发布于47分钟前的23:52 UTC
静风
温度 6°C
湿度 39%
气压 1018 hPa
能見度: 16.1公里
阴天层高于3800英尺

METAR: KMHK 132352Z 00000KT 10SM OVC038 06/M07 A3005 RMK AO2 SLP183 T00611072 10078 20050 53020

时间: 18:39 (00:39 UTC)

预报

该预报发布于1小时和19分钟前的23:20 UTC
预报有效从14日的 00点(UTC)到 14日的 24点(UTC)
风速5节,风向北转西北
能見度: 10公里
散云层高于3500英尺
多云层高于5000英尺
从 14日的 0300点(UTC)
风速5节,风向北转西北
能見度: 10公里
多云层高于2000英尺
从 14日的 1100点(UTC)
风速5节,风向北转西北
能見度: 10公里
散云层高于3500英尺

TAF: KMHK 132320Z 1400/1424 33005KT P6SM SCT035 BKN050 FM140300 34005KT P6SM BKN020 FM141100 33005KT P6SM SCT035

超过4000个机场的气象观测和天气预报(METAR&TAF报告)。

可查询的气象台以黄色和红色小点在地图上表示。

将鼠标移到小点上方,可查看气象台名称。

然后点击查看天气观测和预报。

如需切换地图:点击带黑十字的绿色按钮放大地图;点击带横线的绿色按钮缩小地图;或者点击绿色箭头查看邻近地区的地图。


METAR-TAF: